sensor_id;sensor_type;location;lat;lon;timestamp;P1;durP1;ratioP1;P2;durP2;ratioP2
14599;SDS011;7386;45.586;12.854;2022-10-10T00:01:14;8.47;;;5.50;;
14599;SDS011;7386;45.586;12.854;2022-10-10T00:03:43;12.43;;;5.77;;
14599;SDS011;7386;45.586;12.854;2022-10-10T00:06:13;9.80;;;5.73;;
14599;SDS011;7386;45.586;12.854;2022-10-10T00:08:42;6.97;;;5.40;;
14599;SDS011;7386;45.586;12.854;2022-10-10T00:11:12;10.27;;;5.70;;
14599;SDS011;7386;45.586;12.854;2022-10-10T00:13:42;8.80;;;5.77;;
14599;SDS011;7386;45.586;12.854;2022-10-10T00:16:11;11.90;;;5.93;;
14599;SDS011;7386;45.586;12.854;2022-10-10T00:18:39;8.30;;;5.50;;
14599;SDS011;7386;45.586;12.854;2022-10-10T00:21:08;7.87;;;5.50;;
14599;SDS011;7386;45.586;12.854;2022-10-10T00:23:38;8.60;;;5.70;;
14599;SDS011;7386;45.586;12.854;2022-10-10T00:26:06;7.30;;;5.10;;
14599;SDS011;7386;45.586;12.854;2022-10-10T00:28:42;9.40;;;5.57;;
14599;SDS011;7386;45.586;12.854;2022-10-10T00:31:11;10.03;;;5.53;;
14599;SDS011;7386;45.586;12.854;2022-10-10T00:33:39;7.67;;;5.30;;
14599;SDS011;7386;45.586;12.854;2022-10-10T00:36:07;10.47;;;5.43;;
14599;SDS011;7386;45.586;12.854;2022-10-10T00:38:36;8.57;;;5.57;;
14599;SDS011;7386;45.586;12.854;2022-10-10T00:41:05;9.43;;;5.20;;
14599;SDS011;7386;45.586;12.854;2022-10-10T00:43:34;6.00;;;4.97;;
14599;SDS011;7386;45.586;12.854;2022-10-10T00:46:02;7.70;;;5.00;;
14599;SDS011;7386;45.586;12.854;2022-10-10T00:48:31;9.67;;;5.47;;
14599;SDS011;7386;45.586;12.854;2022-10-10T00:51:03;7.87;;;5.57;;
14599;SDS011;7386;45.586;12.854;2022-10-10T00:53:37;7.43;;;4.77;;
14599;SDS011;7386;45.586;12.854;2022-10-10T00:56:10;7.50;;;5.17;;
14599;SDS011;7386;45.586;12.854;2022-10-10T00:58:42;10.73;;;5.60;;
14599;SDS011;7386;45.586;12.854;2022-10-10T01:01:14;6.13;;;5.20;;
14599;SDS011;7386;45.586;12.854;2022-10-10T01:03:43;7.83;;;4.90;;
14599;SDS011;7386;45.586;12.854;2022-10-10T01:06:11;9.30;;;5.40;;
14599;SDS011;7386;45.586;12.854;2022-10-10T01:08:39;8.97;;;5.37;;
14599;SDS011;7386;45.586;12.854;2022-10-10T01:11:20;7.33;;;5.20;;
14599;SDS011;7386;45.586;12.854;2022-10-10T01:14:01;9.27;;;5.50;;
14599;SDS011;7386;45.586;12.854;2022-10-10T01:16:35;8.07;;;5.03;;
14599;SDS011;7386;45.586;12.854;2022-10-10T01:19:18;8.53;;;5.50;;
14599;SDS011;7386;45.586;12.854;2022-10-10T01:22:19;12.07;;;5.17;;
14599;SDS011;7386;45.586;12.854;2022-10-10T01:24:57;8.43;;;5.23;;
14599;SDS011;7386;45.586;12.854;2022-10-10T01:27:40;9.73;;;5.73;;
14599;SDS011;7386;45.586;12.854;2022-10-10T01:30:13;9.20;;;5.20;;
14599;SDS011;7386;45.586;12.854;2022-10-10T01:32:45;6.40;;;4.80;;
14599;SDS011;7386;45.586;12.854;2022-10-10T01:35:23;10.37;;;5.20;;
14599;SDS011;7386;45.586;12.854;2022-10-10T01:38:01;8.43;;;5.20;;
14599;SDS011;7386;45.586;12.854;2022-10-10T01:40:37;9.47;;;4.93;;
14599;SDS011;7386;45.586;12.854;2022-10-10T01:43:12;7.97;;;4.97;;
14599;SDS011;7386;45.586;12.854;2022-10-10T01:45:45;7.07;;;5.20;;
14599;SDS011;7386;45.586;12.854;2022-10-10T01:48:14;7.53;;;4.90;;
14599;SDS011;7386;45.586;12.854;2022-10-10T01:50:51;6.93;;;5.03;;
14599;SDS011;7386;45.586;12.854;2022-10-10T01:53:37;7.93;;;5.20;;
14599;SDS011;7386;45.586;12.854;2022-10-10T01:56:13;8.30;;;5.50;;
14599;SDS011;7386;45.586;12.854;2022-10-10T02:01:45;8.07;;;5.10;;
14599;SDS011;7386;45.586;12.854;2022-10-10T02:04:20;9.97;;;4.90;;
14599;SDS011;7386;45.586;12.854;2022-10-10T02:06:56;7.07;;;5.27;;
14599;SDS011;7386;45.586;12.854;2022-10-10T02:09:32;8.67;;;4.90;;
14599;SDS011;7386;45.586;12.854;2022-10-10T02:12:04;8.53;;;5.07;;
14599;SDS011;7386;45.586;12.854;2022-10-10T02:14:34;10.00;;;5.37;;
14599;SDS011;7386;45.586;12.854;2022-10-10T02:17:08;10.30;;;5.00;;
14599;SDS011;7386;45.586;12.854;2022-10-10T02:19:40;9.20;;;5.43;;
14599;SDS011;7386;45.586;12.854;2022-10-10T02:22:10;8.43;;;5.00;;
14599;SDS011;7386;45.586;12.854;2022-10-10T02:24:40;7.67;;;5.40;;
14599;SDS011;7386;45.586;12.854;2022-10-10T02:27:10;7.10;;;5.33;;
14599;SDS011;7386;45.586;12.854;2022-10-10T02:29:43;7.20;;;5.07;;
14599;SDS011;7386;45.586;12.854;2022-10-10T02:32:17;8.00;;;5.30;;
14599;SDS011;7386;45.586;12.854;2022-10-10T02:34:52;6.73;;;5.20;;
14599;SDS011;7386;45.586;12.854;2022-10-10T02:37:24;9.87;;;5.00;;
14599;SDS011;7386;45.586;12.854;2022-10-10T02:39:55;8.33;;;5.37;;
14599;SDS011;7386;45.586;12.854;2022-10-10T02:42:27;8.33;;;5.20;;
14599;SDS011;7386;45.586;12.854;2022-10-10T02:44:56;8.37;;;5.07;;
14599;SDS011;7386;45.586;12.854;2022-10-10T02:47:26;9.97;;;5.10;;
14599;SDS011;7386;45.586;12.854;2022-10-10T02:49:54;10.30;;;5.40;;
14599;SDS011;7386;45.586;12.854;2022-10-10T02:52:22;7.40;;;5.03;;
14599;SDS011;7386;45.586;12.854;2022-10-10T02:54:50;8.00;;;5.10;;
14599;SDS011;7386;45.586;12.854;2022-10-10T02:57:19;8.17;;;5.40;;
14599;SDS011;7386;45.586;12.854;2022-10-10T02:59:47;8.53;;;5.40;;
14599;SDS011;7386;45.586;12.854;2022-10-10T03:02:15;9.70;;;5.83;;
14599;SDS011;7386;45.586;12.854;2022-10-10T03:04:45;9.80;;;5.87;;
14599;SDS011;7386;45.586;12.854;2022-10-10T03:07:13;7.37;;;5.30;;
14599;SDS011;7386;45.586;12.854;2022-10-10T03:09:41;9.93;;;5.57;;
14599;SDS011;7386;45.586;12.854;2022-10-10T03:12:10;9.00;;;5.70;;
14599;SDS011;7386;45.586;12.854;2022-10-10T03:14:38;10.63;;;5.93;;
14599;SDS011;7386;45.586;12.854;2022-10-10T03:17:06;9.47;;;5.17;;
14599;SDS011;7386;45.586;12.854;2022-10-10T03:19:34;12.53;;;5.57;;
14599;SDS011;7386;45.586;12.854;2022-10-10T03:22:04;8.87;;;5.13;;
14599;SDS011;7386;45.586;12.854;2022-10-10T03:24:32;7.43;;;5.40;;
14599;SDS011;7386;45.586;12.854;2022-10-10T03:27:00;7.60;;;5.37;;
14599;SDS011;7386;45.586;12.854;2022-10-10T03:29:28;9.30;;;5.20;;
14599;SDS011;7386;45.586;12.854;2022-10-10T03:31:56;9.10;;;5.50;;
14599;SDS011;7386;45.586;12.854;2022-10-10T03:34:25;8.63;;;5.27;;
14599;SDS011;7386;45.586;12.854;2022-10-10T03:36:53;10.07;;;5.80;;
14599;SDS011;7386;45.586;12.854;2022-10-10T03:39:23;8.00;;;5.43;;
14599;SDS011;7386;45.586;12.854;2022-10-10T03:41:51;9.03;;;5.33;;
14599;SDS011;7386;45.586;12.854;2022-10-10T03:44:19;7.97;;;5.43;;
14599;SDS011;7386;45.586;12.854;2022-10-10T03:46:47;9.27;;;5.90;;
14599;SDS011;7386;45.586;12.854;2022-10-10T03:49:15;10.53;;;5.80;;
14599;SDS011;7386;45.586;12.854;2022-10-10T03:51:44;9.00;;;6.30;;
14599;SDS011;7386;45.586;12.854;2022-10-10T03:54:12;10.37;;;6.13;;
14599;SDS011;7386;45.586;12.854;2022-10-10T03:56:41;9.07;;;6.03;;
14599;SDS011;7386;45.586;12.854;2022-10-10T03:59:10;10.53;;;5.37;;
14599;SDS011;7386;45.586;12.854;2022-10-10T04:01:38;8.23;;;5.70;;
14599;SDS011;7386;45.586;12.854;2022-10-10T04:04:06;10.67;;;5.60;;
14599;SDS011;7386;45.586;12.854;2022-10-10T04:06:35;10.20;;;5.63;;
14599;SDS011;7386;45.586;12.854;2022-10-10T04:09:03;8.47;;;5.60;;
14599;SDS011;7386;45.586;12.854;2022-10-10T04:11:31;10.20;;;5.80;;
14599;SDS011;7386;45.586;12.854;2022-10-10T04:14:03;9.33;;;5.93;;
14599;SDS011;7386;45.586;12.854;2022-10-10T04:16:31;9.20;;;5.97;;
14599;SDS011;7386;45.586;12.854;2022-10-10T04:18:59;9.13;;;5.63;;
14599;SDS011;7386;45.586;12.854;2022-10-10T04:21:27;8.63;;;5.90;;
14599;SDS011;7386;45.586;12.854;2022-10-10T04:23:56;7.83;;;5.40;;
14599;SDS011;7386;45.586;12.854;2022-10-10T04:26:25;9.30;;;5.90;;
14599;SDS011;7386;45.586;12.854;2022-10-10T04:28:53;7.90;;;6.37;;
14599;SDS011;7386;45.586;12.854;2022-10-10T04:31:22;8.03;;;6.13;;
14599;SDS011;7386;45.586;12.854;2022-10-10T04:33:51;9.63;;;6.10;;
14599;SDS011;7386;45.586;12.854;2022-10-10T04:36:19;12.33;;;5.83;;
14599;SDS011;7386;45.586;12.854;2022-10-10T04:38:47;9.13;;;6.13;;
14599;SDS011;7386;45.586;12.854;2022-10-10T04:41:15;10.80;;;6.07;;
14599;SDS011;7386;45.586;12.854;2022-10-10T04:43:43;11.77;;;6.40;;
14599;SDS011;7386;45.586;12.854;2022-10-10T04:46:12;10.70;;;6.07;;
14599;SDS011;7386;45.586;12.854;2022-10-10T04:48:41;9.70;;;6.10;;
14599;SDS011;7386;45.586;12.854;2022-10-10T04:51:10;9.90;;;6.20;;
14599;SDS011;7386;45.586;12.854;2022-10-10T04:53:38;9.37;;;6.90;;
14599;SDS011;7386;45.586;12.854;2022-10-10T04:56:06;10.70;;;6.40;;
14599;SDS011;7386;45.586;12.854;2022-10-10T04:58:34;10.43;;;6.87;;
14599;SDS011;7386;45.586;12.854;2022-10-10T05:01:03;10.00;;;7.00;;
14599;SDS011;7386;45.586;12.854;2022-10-10T05:03:31;11.17;;;6.93;;
14599;SDS011;7386;45.586;12.854;2022-10-10T05:06:01;11.63;;;7.07;;
14599;SDS011;7386;45.586;12.854;2022-10-10T05:08:29;11.33;;;7.03;;
14599;SDS011;7386;45.586;12.854;2022-10-10T05:10:57;9.37;;;6.67;;
14599;SDS011;7386;45.586;12.854;2022-10-10T05:13:26;9.50;;;6.93;;
14599;SDS011;7386;45.586;12.854;2022-10-10T05:15:54;9.93;;;7.20;;
14599;SDS011;7386;45.586;12.854;2022-10-10T05:18:22;10.90;;;7.03;;
14599;SDS011;7386;45.586;12.854;2022-10-10T05:20:50;9.17;;;7.10;;
14599;SDS011;7386;45.586;12.854;2022-10-10T05:23:20;11.90;;;7.43;;
14599;SDS011;7386;45.586;12.854;2022-10-10T05:25:48;10.63;;;7.30;;
14599;SDS011;7386;45.586;12.854;2022-10-10T05:28:17;11.83;;;6.80;;
14599;SDS011;7386;45.586;12.854;2022-10-10T05:30:45;11.57;;;7.47;;
14599;SDS011;7386;45.586;12.854;2022-10-10T05:33:14;10.07;;;6.97;;
14599;SDS011;7386;45.586;12.854;2022-10-10T05:35:42;12.37;;;7.23;;
14599;SDS011;7386;45.586;12.854;2022-10-10T05:38:10;9.93;;;7.07;;
14599;SDS011;7386;45.586;12.854;2022-10-10T05:40:40;9.70;;;6.97;;
14599;SDS011;7386;45.586;12.854;2022-10-10T05:43:08;13.60;;;7.03;;
14599;SDS011;7386;45.586;12.854;2022-10-10T05:45:36;11.03;;;7.20;;
14599;SDS011;7386;45.586;12.854;2022-10-10T05:48:05;12.17;;;7.13;;
14599;SDS011;7386;45.586;12.854;2022-10-10T05:50:34;11.50;;;7.70;;
14599;SDS011;7386;45.586;12.854;2022-10-10T05:53:04;8.97;;;6.70;;
14599;SDS011;7386;45.586;12.854;2022-10-10T05:55:33;9.30;;;7.27;;
14599;SDS011;7386;45.586;12.854;2022-10-10T05:58:03;9.93;;;7.23;;
14599;SDS011;7386;45.586;12.854;2022-10-10T06:00:32;12.23;;;7.50;;
14599;SDS011;7386;45.586;12.854;2022-10-10T06:03:01;10.23;;;6.90;;
14599;SDS011;7386;45.586;12.854;2022-10-10T06:05:30;9.57;;;7.23;;
14599;SDS011;7386;45.586;12.854;2022-10-10T06:07:58;10.10;;;7.30;;
14599;SDS011;7386;45.586;12.854;2022-10-10T06:10:37;10.83;;;6.97;;
14599;SDS011;7386;45.586;12.854;2022-10-10T06:13:09;12.50;;;7.33;;
14599;SDS011;7386;45.586;12.854;2022-10-10T06:15:38;12.30;;;7.10;;
14599;SDS011;7386;45.586;12.854;2022-10-10T06:18:06;9.23;;;6.77;;
14599;SDS011;7386;45.586;12.854;2022-10-10T06:20:35;13.00;;;7.47;;
14599;SDS011;7386;45.586;12.854;2022-10-10T06:23:05;13.80;;;7.10;;
14599;SDS011;7386;45.586;12.854;2022-10-10T06:25:35;12.77;;;7.43;;
14599;SDS011;7386;45.586;12.854;2022-10-10T06:28:08;10.40;;;7.13;;
14599;SDS011;7386;45.586;12.854;2022-10-10T06:30:40;9.97;;;6.90;;
14599;SDS011;7386;45.586;12.854;2022-10-10T06:33:10;9.27;;;7.27;;
14599;SDS011;7386;45.586;12.854;2022-10-10T06:35:40;9.40;;;6.30;;
14599;SDS011;7386;45.586;12.854;2022-10-10T06:38:10;8.37;;;6.23;;
14599;SDS011;7386;45.586;12.854;2022-10-10T06:40:39;7.63;;;6.27;;
14599;SDS011;7386;45.586;12.854;2022-10-10T06:43:10;8.23;;;5.93;;
14599;SDS011;7386;45.586;12.854;2022-10-10T06:45:39;8.37;;;6.13;;
14599;SDS011;7386;45.586;12.854;2022-10-10T06:48:10;8.17;;;6.10;;
14599;SDS011;7386;45.586;12.854;2022-10-10T06:50:39;9.57;;;6.10;;
14599;SDS011;7386;45.586;12.854;2022-10-10T06:53:08;10.80;;;7.00;;
14599;SDS011;7386;45.586;12.854;2022-10-10T06:55:36;8.40;;;5.67;;
14599;SDS011;7386;45.586;12.854;2022-10-10T06:58:04;9.47;;;6.00;;
14599;SDS011;7386;45.586;12.854;2022-10-10T07:00:34;7.10;;;5.57;;
14599;SDS011;7386;45.586;12.854;2022-10-10T07:03:02;10.00;;;5.87;;
14599;SDS011;7386;45.586;12.854;2022-10-10T07:05:31;13.40;;;6.20;;
14599;SDS011;7386;45.586;12.854;2022-10-10T07:07:59;9.50;;;5.83;;
14599;SDS011;7386;45.586;12.854;2022-10-10T07:10:27;8.00;;;5.23;;
14599;SDS011;7386;45.586;12.854;2022-10-10T07:12:56;9.27;;;6.10;;
14599;SDS011;7386;45.586;12.854;2022-10-10T07:15:24;8.87;;;6.00;;
14599;SDS011;7386;45.586;12.854;2022-10-10T07:17:57;10.60;;;6.43;;
14599;SDS011;7386;45.586;12.854;2022-10-10T07:20:25;20.27;;;7.23;;
14599;SDS011;7386;45.586;12.854;2022-10-10T07:22:54;22.23;;;7.23;;
14599;SDS011;7386;45.586;12.854;2022-10-10T07:25:23;15.27;;;7.77;;
14599;SDS011;7386;45.586;12.854;2022-10-10T07:27:51;12.33;;;7.17;;
14599;SDS011;7386;45.586;12.854;2022-10-10T07:30:19;14.83;;;7.57;;
14599;SDS011;7386;45.586;12.854;2022-10-10T07:32:47;10.00;;;7.10;;
14599;SDS011;7386;45.586;12.854;2022-10-10T07:35:17;12.43;;;7.90;;
14599;SDS011;7386;45.586;12.854;2022-10-10T07:37:47;10.00;;;6.90;;
14599;SDS011;7386;45.586;12.854;2022-10-10T07:40:15;13.17;;;8.40;;
14599;SDS011;7386;45.586;12.854;2022-10-10T07:42:43;10.87;;;7.50;;
14599;SDS011;7386;45.586;12.854;2022-10-10T07:45:12;11.38;;;7.00;;
14599;SDS011;7386;45.586;12.854;2022-10-10T07:47:40;11.77;;;6.13;;
14599;SDS011;7386;45.586;12.854;2022-10-10T07:50:09;9.60;;;6.67;;
14599;SDS011;7386;45.586;12.854;2022-10-10T07:52:39;9.30;;;6.70;;
14599;SDS011;7386;45.586;12.854;2022-10-10T07:55:08;9.10;;;6.05;;
14599;SDS011;7386;45.586;12.854;2022-10-10T07:57:36;8.45;;;5.80;;
14599;SDS011;7386;45.586;12.854;2022-10-10T08:00:05;8.87;;;6.63;;
14599;SDS011;7386;45.586;12.854;2022-10-10T08:02:35;14.63;;;6.43;;
14599;SDS011;7386;45.586;12.854;2022-10-10T08:05:03;11.02;;;5.70;;
14599;SDS011;7386;45.586;12.854;2022-10-10T08:07:32;9.75;;;5.82;;
14599;SDS011;7386;45.586;12.854;2022-10-10T08:10:02;8.48;;;6.00;;
14599;SDS011;7386;45.586;12.854;2022-10-10T08:12:31;9.65;;;5.70;;
14599;SDS011;7386;45.586;12.854;2022-10-10T08:15:00;8.43;;;6.25;;
14599;SDS011;7386;45.586;12.854;2022-10-10T08:17:28;10.18;;;5.60;;
14599;SDS011;7386;45.586;12.854;2022-10-10T08:19:56;7.93;;;5.85;;
14599;SDS011;7386;45.586;12.854;2022-10-10T08:22:25;8.23;;;5.65;;
14599;SDS011;7386;45.586;12.854;2022-10-10T08:24:53;7.38;;;5.28;;
14599;SDS011;7386;45.586;12.854;2022-10-10T08:27:22;10.45;;;6.10;;
14599;SDS011;7386;45.586;12.854;2022-10-10T08:29:51;10.40;;;5.63;;
14599;SDS011;7386;45.586;12.854;2022-10-10T08:32:19;14.70;;;5.95;;
14599;SDS011;7386;45.586;12.854;2022-10-10T08:34:47;9.93;;;5.95;;
14599;SDS011;7386;45.586;12.854;2022-10-10T08:37:15;13.40;;;6.53;;
14599;SDS011;7386;45.586;12.854;2022-10-10T08:39:44;11.27;;;6.00;;
14599;SDS011;7386;45.586;12.854;2022-10-10T08:42:13;11.15;;;5.72;;
14599;SDS011;7386;45.586;12.854;2022-10-10T08:44:47;11.38;;;5.70;;
14599;SDS011;7386;45.586;12.854;2022-10-10T08:47:22;12.50;;;5.60;;
14599;SDS011;7386;45.586;12.854;2022-10-10T08:49:56;8.40;;;5.30;;
14599;SDS011;7386;45.586;12.854;2022-10-10T08:52:29;10.50;;;5.30;;
14599;SDS011;7386;45.586;12.854;2022-10-10T08:55:00;7.88;;;5.45;;
14599;SDS011;7386;45.586;12.854;2022-10-10T08:57:33;9.82;;;6.07;;
14599;SDS011;7386;45.586;12.854;2022-10-10T09:00:11;8.27;;;5.60;;
14599;SDS011;7386;45.586;12.854;2022-10-10T09:02:44;10.73;;;5.97;;
14599;SDS011;7386;45.586;12.854;2022-10-10T09:05:20;9.88;;;6.28;;
14599;SDS011;7386;45.586;12.854;2022-10-10T09:08:07;9.70;;;5.70;;
14599;SDS011;7386;45.586;12.854;2022-10-10T09:10:53;10.55;;;6.07;;
14599;SDS011;7386;45.586;12.854;2022-10-10T09:13:27;14.05;;;5.80;;
14599;SDS011;7386;45.586;12.854;2022-10-10T09:16:02;9.98;;;6.32;;
14599;SDS011;7386;45.586;12.854;2022-10-10T09:18:43;8.20;;;5.63;;
14599;SDS011;7386;45.586;12.854;2022-10-10T09:21:19;8.32;;;5.90;;
14599;SDS011;7386;45.586;12.854;2022-10-10T09:23:52;10.02;;;6.57;;
14599;SDS011;7386;45.586;12.854;2022-10-10T09:26:27;10.18;;;5.78;;
14599;SDS011;7386;45.586;12.854;2022-10-10T09:28:59;14.82;;;6.38;;
14599;SDS011;7386;45.586;12.854;2022-10-10T09:31:35;7.20;;;5.43;;
14599;SDS011;7386;45.586;12.854;2022-10-10T09:34:10;10.70;;;6.20;;
14599;SDS011;7386;45.586;12.854;2022-10-10T09:36:41;9.30;;;6.05;;
14599;SDS011;7386;45.586;12.854;2022-10-10T09:39:15;8.95;;;5.43;;
14599;SDS011;7386;45.586;12.854;2022-10-10T09:41:50;8.43;;;5.65;;
14599;SDS011;7386;45.586;12.854;2022-10-10T09:44:21;11.25;;;6.03;;
14599;SDS011;7386;45.586;12.854;2022-10-10T09:46:51;9.95;;;5.82;;
14599;SDS011;7386;45.586;12.854;2022-10-10T09:49:20;12.98;;;6.55;;
14599;SDS011;7386;45.586;12.854;2022-10-10T09:51:48;28.15;;;9.70;;
14599;SDS011;7386;45.586;12.854;2022-10-10T09:54:17;19.48;;;8.95;;
14599;SDS011;7386;45.586;12.854;2022-10-10T09:56:48;24.88;;;10.23;;
14599;SDS011;7386;45.586;12.854;2022-10-10T09:59:37;19.45;;;9.40;;
14599;SDS011;7386;45.586;12.854;2022-10-10T10:02:13;20.05;;;7.90;;
14599;SDS011;7386;45.586;12.854;2022-10-10T10:04:43;13.82;;;7.80;;
14599;SDS011;7386;45.586;12.854;2022-10-10T10:07:17;15.18;;;7.80;;
14599;SDS011;7386;45.586;12.854;2022-10-10T10:09:48;9.25;;;6.78;;
14599;SDS011;7386;45.586;12.854;2022-10-10T10:12:19;9.35;;;6.45;;
14599;SDS011;7386;45.586;12.854;2022-10-10T10:14:49;10.25;;;6.30;;
14599;SDS011;7386;45.586;12.854;2022-10-10T10:17:21;11.15;;;6.65;;
14599;SDS011;7386;45.586;12.854;2022-10-10T10:19:50;10.45;;;6.38;;
14599;SDS011;7386;45.586;12.854;2022-10-10T10:22:29;8.43;;;6.20;;
14599;SDS011;7386;45.586;12.854;2022-10-10T10:25:25;12.13;;;6.22;;
14599;SDS011;7386;45.586;12.854;2022-10-10T10:30:50;9.07;;;6.20;;
14599;SDS011;7386;45.586;12.854;2022-10-10T10:33:25;9.40;;;6.25;;
14599;SDS011;7386;45.586;12.854;2022-10-10T10:36:07;11.93;;;7.05;;
14599;SDS011;7386;45.586;12.854;2022-10-10T10:38:49;10.60;;;7.03;;
14599;SDS011;7386;45.586;12.854;2022-10-10T10:41:23;11.50;;;6.68;;
14599;SDS011;7386;45.586;12.854;2022-10-10T10:44:02;8.50;;;6.55;;
14599;SDS011;7386;45.586;12.854;2022-10-10T10:46:47;6.72;;;5.80;;
14599;SDS011;7386;45.586;12.854;2022-10-10T10:49:28;9.05;;;6.18;;
14599;SDS011;7386;45.586;12.854;2022-10-10T10:55:10;9.77;;;6.35;;
14599;SDS011;7386;45.586;12.854;2022-10-10T10:57:54;9.10;;;6.45;;
14599;SDS011;7386;45.586;12.854;2022-10-10T11:00:58;10.20;;;6.47;;
14599;SDS011;7386;45.586;12.854;2022-10-10T11:03:49;11.50;;;6.93;;
14599;SDS011;7386;45.586;12.854;2022-10-10T11:06:50;9.95;;;6.30;;
14599;SDS011;7386;45.586;12.854;2022-10-10T11:09:47;8.75;;;6.60;;
14599;SDS011;7386;45.586;12.854;2022-10-10T11:12:27;10.20;;;6.28;;
14599;SDS011;7386;45.586;12.854;2022-10-10T11:15:09;8.98;;;6.95;;
14599;SDS011;7386;45.586;12.854;2022-10-10T11:17:42;8.43;;;6.70;;
14599;SDS011;7386;45.586;12.854;2022-10-10T11:20:18;10.00;;;7.25;;
14599;SDS011;7386;45.586;12.854;2022-10-10T11:22:54;9.55;;;7.40;;
14599;SDS011;7386;45.586;12.854;2022-10-10T11:25:35;12.45;;;8.63;;
14599;SDS011;7386;45.586;12.854;2022-10-10T11:28:09;10.10;;;8.13;;
14599;SDS011;7386;45.586;12.854;2022-10-10T11:30:43;12.80;;;8.13;;
14599;SDS011;7386;45.586;12.854;2022-10-10T11:33:17;10.05;;;8.07;;
14599;SDS011;7386;45.586;12.854;2022-10-10T11:35:52;9.85;;;8.00;;
14599;SDS011;7386;45.586;12.854;2022-10-10T11:38:26;12.15;;;7.88;;
14599;SDS011;7386;45.586;12.854;2022-10-10T11:40:59;12.25;;;8.35;;
14599;SDS011;7386;45.586;12.854;2022-10-10T11:43:32;12.32;;;8.35;;
14599;SDS011;7386;45.586;12.854;2022-10-10T11:46:07;15.45;;;8.23;;
14599;SDS011;7386;45.586;12.854;2022-10-10T11:48:44;9.50;;;7.85;;
14599;SDS011;7386;45.586;12.854;2022-10-10T11:51:21;9.77;;;8.35;;
14599;SDS011;7386;45.586;12.854;2022-10-10T11:53:59;10.40;;;7.50;;
14599;SDS011;7386;45.586;12.854;2022-10-10T11:56:32;8.40;;;7.13;;
14599;SDS011;7386;45.586;12.854;2022-10-10T11:59:06;9.55;;;7.80;;
14599;SDS011;7386;45.586;12.854;2022-10-10T12:01:40;14.23;;;9.13;;
14599;SDS011;7386;45.586;12.854;2022-10-10T12:04:13;23.67;;;12.00;;
14599;SDS011;7386;45.586;12.854;2022-10-10T12:06:42;36.75;;;13.65;;
14599;SDS011;7386;45.586;12.854;2022-10-10T12:09:17;29.40;;;13.23;;
14599;SDS011;7386;45.586;12.854;2022-10-10T12:11:51;25.15;;;11.68;;
14599;SDS011;7386;45.586;12.854;2022-10-10T12:14:24;21.60;;;11.43;;
14599;SDS011;7386;45.586;12.854;2022-10-10T12:16:55;18.70;;;9.77;;
14599;SDS011;7386;45.586;12.854;2022-10-10T12:19:24;14.50;;;9.80;;
14599;SDS011;7386;45.586;12.854;2022-10-10T12:21:56;15.38;;;8.98;;
14599;SDS011;7386;45.586;12.854;2022-10-10T12:24:28;15.02;;;8.70;;
14599;SDS011;7386;45.586;12.854;2022-10-10T12:27:14;15.18;;;8.82;;
14599;SDS011;7386;45.586;12.854;2022-10-10T12:30:11;12.48;;;8.30;;
14599;SDS011;7386;45.586;12.854;2022-10-10T12:32:47;13.48;;;7.97;;
14599;SDS011;7386;45.586;12.854;2022-10-10T12:35:27;12.25;;;8.45;;
14599;SDS011;7386;45.586;12.854;2022-10-10T12:41:04;9.20;;;7.50;;
14599;SDS011;7386;45.586;12.854;2022-10-10T12:43:48;11.55;;;8.32;;
14599;SDS011;7386;45.586;12.854;2022-10-10T12:49:14;11.25;;;8.70;;
14599;SDS011;7386;45.586;12.854;2022-10-10T12:51:56;10.48;;;8.82;;
14599;SDS011;7386;45.586;12.854;2022-10-10T12:54:28;14.63;;;8.93;;
14599;SDS011;7386;45.586;12.854;2022-10-10T12:57:06;12.13;;;7.90;;
14599;SDS011;7386;45.586;12.854;2022-10-10T12:59:40;10.18;;;7.75;;
14599;SDS011;7386;45.586;12.854;2022-10-10T13:02:11;11.23;;;8.55;;
14599;SDS011;7386;45.586;12.854;2022-10-10T13:04:43;11.02;;;8.57;;
14599;SDS011;7386;45.586;12.854;2022-10-10T13:07:14;11.43;;;8.25;;
14599;SDS011;7386;45.586;12.854;2022-10-10T13:09:45;14.57;;;8.95;;
14599;SDS011;7386;45.586;12.854;2022-10-10T13:12:23;12.18;;;8.45;;
14599;SDS011;7386;45.586;12.854;2022-10-10T13:14:53;14.02;;;8.48;;
14599;SDS011;7386;45.586;12.854;2022-10-10T13:17:24;11.18;;;7.90;;
14599;SDS011;7386;45.586;12.854;2022-10-10T13:19:54;13.23;;;8.88;;
14599;SDS011;7386;45.586;12.854;2022-10-10T13:22:24;12.70;;;8.82;;
14599;SDS011;7386;45.586;12.854;2022-10-10T13:24:53;10.30;;;8.13;;
14599;SDS011;7386;45.586;12.854;2022-10-10T13:27:23;9.00;;;7.63;;
14599;SDS011;7386;45.586;12.854;2022-10-10T13:29:53;9.73;;;7.97;;
14599;SDS011;7386;45.586;12.854;2022-10-10T13:32:24;11.95;;;8.13;;
14599;SDS011;7386;45.586;12.854;2022-10-10T13:34:54;9.68;;;8.40;;
14599;SDS011;7386;45.586;12.854;2022-10-10T13:37:24;10.43;;;8.32;;
14599;SDS011;7386;45.586;12.854;2022-10-10T13:39:53;11.52;;;7.53;;
14599;SDS011;7386;45.586;12.854;2022-10-10T13:42:30;9.00;;;7.38;;
14599;SDS011;7386;45.586;12.854;2022-10-10T13:45:02;10.55;;;7.82;;
14599;SDS011;7386;45.586;12.854;2022-10-10T13:47:56;9.80;;;7.35;;
14599;SDS011;7386;45.586;12.854;2022-10-10T13:50:49;9.13;;;7.32;;
14599;SDS011;7386;45.586;12.854;2022-10-10T13:53:23;10.23;;;8.07;;
14599;SDS011;7386;45.586;12.854;2022-10-10T13:56:00;11.88;;;7.88;;
14599;SDS011;7386;45.586;12.854;2022-10-10T13:58:38;9.40;;;7.97;;
14599;SDS011;7386;45.586;12.854;2022-10-10T14:01:19;10.18;;;7.65;;
14599;SDS011;7386;45.586;12.854;2022-10-10T14:04:00;9.18;;;7.45;;
14599;SDS011;7386;45.586;12.854;2022-10-10T14:06:32;10.80;;;7.60;;
14599;SDS011;7386;45.586;12.854;2022-10-10T14:09:03;10.00;;;8.48;;
14599;SDS011;7386;45.586;12.854;2022-10-10T14:11:35;9.73;;;7.75;;
14599;SDS011;7386;45.586;12.854;2022-10-10T14:14:06;8.90;;;7.78;;
14599;SDS011;7386;45.586;12.854;2022-10-10T14:16:41;9.75;;;7.55;;
14599;SDS011;7386;45.586;12.854;2022-10-10T14:19:12;10.90;;;7.95;;
14599;SDS011;7386;45.586;12.854;2022-10-10T14:21:44;11.23;;;7.70;;
14599;SDS011;7386;45.586;12.854;2022-10-10T14:24:12;9.90;;;7.30;;
14599;SDS011;7386;45.586;12.854;2022-10-10T14:26:41;9.45;;;7.88;;
14599;SDS011;7386;45.586;12.854;2022-10-10T14:29:11;10.60;;;7.72;;
14599;SDS011;7386;45.586;12.854;2022-10-10T14:31:41;9.88;;;7.93;;
14599;SDS011;7386;45.586;12.854;2022-10-10T14:34:10;9.43;;;7.55;;
14599;SDS011;7386;45.586;12.854;2022-10-10T14:36:41;9.65;;;7.50;;
14599;SDS011;7386;45.586;12.854;2022-10-10T14:39:12;8.82;;;7.00;;
14599;SDS011;7386;45.586;12.854;2022-10-10T14:41:41;10.40;;;7.75;;
14599;SDS011;7386;45.586;12.854;2022-10-10T14:44:11;12.38;;;7.50;;
14599;SDS011;7386;45.586;12.854;2022-10-10T14:46:40;9.05;;;7.53;;
14599;SDS011;7386;45.586;12.854;2022-10-10T14:49:12;10.55;;;7.45;;
14599;SDS011;7386;45.586;12.854;2022-10-10T14:51:44;9.05;;;7.53;;
14599;SDS011;7386;45.586;12.854;2022-10-10T14:54:12;10.30;;;7.53;;
14599;SDS011;7386;45.586;12.854;2022-10-10T14:56:41;10.35;;;7.57;;
14599;SDS011;7386;45.586;12.854;2022-10-10T14:59:32;9.18;;;7.85;;
14599;SDS011;7386;45.586;12.854;2022-10-10T15:02:13;9.50;;;7.47;;
14599;SDS011;7386;45.586;12.854;2022-10-10T15:04:42;9.40;;;6.97;;
14599;SDS011;7386;45.586;12.854;2022-10-10T15:07:10;8.45;;;7.38;;
14599;SDS011;7386;45.586;12.854;2022-10-10T15:09:40;9.38;;;7.20;;
14599;SDS011;7386;45.586;12.854;2022-10-10T15:12:29;11.13;;;7.68;;
14599;SDS011;7386;45.586;12.854;2022-10-10T15:14:59;9.02;;;7.25;;
14599;SDS011;7386;45.586;12.854;2022-10-10T15:17:27;8.80;;;7.10;;
14599;SDS011;7386;45.586;12.854;2022-10-10T15:19:59;8.93;;;7.55;;
14599;SDS011;7386;45.586;12.854;2022-10-10T15:22:27;9.48;;;7.30;;
14599;SDS011;7386;45.586;12.854;2022-10-10T15:24:56;9.90;;;7.53;;